Map

Track Data

SID SEASON NUMBER BASIN SUBBASIN NAME ISO_TIME NATURE LAT LON WMO_WIND WMO_PRES WMO_AGENCY TRACK_TYPE DIST2LAND LANDFALL IFLAG USA_AGENCY USA_ATCF_ID USA_LAT USA_LON USA_RECORD USA_STATUS USA_WIND USA_PRES USA_SSHS USA_R34_NE USA_R34_SE USA_R34_SW USA_R34_NW USA_R50_NE USA_R50_SE USA_R50_SW USA_R50_NW USA_R64_NE USA_R64_SE USA_R64_SW USA_R64_NW USA_POCI USA_ROCI USA_RMW USA_EYE TOKYO_LAT TOKYO_LON TOKYO_GRADE TOKYO_WIND TOKYO_PRES TOKYO_R50_DIR TOKYO_R50_LONG TOKYO_R50_SHORT TOKYO_R30_DIR TOKYO_R30_LONG TOKYO_R30_SHORT TOKYO_LAND CMA_LAT CMA_LON CMA_CAT CMA_WIND CMA_PRES HKO_LAT HKO_LON HKO_CAT HKO_WIND HKO_PRES NEWDELHI_LAT NEWDELHI_LON NEWDELHI_GRADE NEWDELHI_WIND NEWDELHI_PRES NEWDELHI_CI NEWDELHI_DP NEWDELHI_POCI REUNION_LAT REUNION_LON REUNION_TYPE REUNION_WIND REUNION_PRES REUNION_TNUM REUNION_CI REUNION_RMW REUNION_R34_NE REUNION_R34_SE REUNION_R34_SW REUNION_R34_NW REUNION_R50_NE REUNION_R50_SE REUNION_R50_SW REUNION_R50_NW REUNION_R64_NE REUNION_R64_SE REUNION_R64_SW REUNION_R64_NW BOM_LAT BOM_LON BOM_TYPE BOM_WIND BOM_PRES BOM_TNUM BOM_CI BOM_RMW BOM_R34_NE BOM_R34_SE BOM_R34_SW BOM_R34_NW BOM_R50_NE BOM_R50_SE BOM_R50_SW BOM_R50_NW BOM_R64_NE BOM_R64_SE BOM_R64_SW BOM_R64_NW BOM_ROCI BOM_POCI BOM_EYE BOM_POS_METHOD BOM_PRES_METHOD NADI_LAT NADI_LON NADI_CAT NADI_WIND NADI_PRES WELLINGTON_LAT WELLINGTON_LON WELLINGTON_WIND WELLINGTON_PRES DS824_LAT DS824_LON DS824_STAGE DS824_WIND DS824_PRES TD9636_LAT TD9636_LON TD9636_STAGE TD9636_WIND TD9636_PRES TD9635_LAT TD9635_LON TD9635_WIND TD9635_PRES TD9635_ROCI NEUMANN_LAT NEUMANN_LON NEUMANN_CLASS NEUMANN_WIND NEUMANN_PRES MLC_LAT MLC_LON MLC_CLASS MLC_WIND MLC_PRES USA_GUST BOM_GUST BOM_GUST_PER REUNION_GUST REUNION_GUST_PER USA_SEAHGT USA_SEARAD_NE USA_SEARAD_SE USA_SEARAD_SW USA_SEARAD_NW STORM_SPEED STORM_DIR
1987263N10309 1987 79 NA NA EMILY 1987-09-20 00:00:00 TS 9.80000 -51.3000 25 1008 hurdat_atl main 530 519 O_____________ hurdat_atl AL121987 9.80000 -51.3000 TD 25 1008 -1 18 290
1987263N10309 1987 79 NA NA EMILY 1987-09-20 03:00:00 TS 10.1104 -52.1497 main 524 516 P_____________ AL121987 10.1104 -52.1497 TD 25 1007 -1 18 290
1987263N10309 1987 79 NA NA EMILY 1987-09-20 06:00:00 TS 10.4000 -53.0000 25 1007 hurdat_atl main 521 518 O_____________ hurdat_atl AL121987 10.4000 -53.0000 TD 25 1007 -1 18 288
1987263N10309 1987 79 NA NA EMILY 1987-09-20 09:00:00 TS 10.6573 -53.8502 main 538 537 P_____________ AL121987 10.6573 -53.8502 TD 27 1006 -1 17 287
1987263N10309 1987 79 NA NA EMILY 1987-09-20 12:00:00 TS 10.9000 -54.7000 30 1006 hurdat_atl main 560 517 O_____________ hurdat_atl AL121987 10.9000 -54.7000 TD 30 1006 -1 17 286
1987263N10309 1987 79 NA NA EMILY 1987-09-20 15:00:00 TS 11.1423 -55.5577 main 509 475 P_____________ AL121987 11.1423 -55.5577 TD 32 1005 -1 17 287
1987263N10309 1987 79 NA NA EMILY 1987-09-20 18:00:00 TS 11.4000 -56.4000 35 1005 hurdat_atl main 475 429 O_____________ hurdat_atl AL121987 11.4000 -56.4000 TS 35 1005 0 17 289
1987263N10309 1987 79 NA NA EMILY 1987-09-20 21:00:00 TS 11.7072 -57.2000 main 429 358 P_____________ AL121987 11.7072 -57.2000 TS 37 1004 0 17 291
1987263N10309 1987 79 NA NA EMILY 1987-09-21 00:00:00 TS 12.0000 -58.0000 40 1004 hurdat_atl main 358 292 O_____________ hurdat_atl AL121987 12.0000 -58.0000 TS 40 1004 0 17 287
1987263N10309 1987 79 NA NA EMILY 1987-09-21 03:00:00 TS 12.1924 -58.8504 main 284 237 P_____________ AL121987 12.1924 -58.8504 TS 40 1004 0 17 284
1987263N10309 1987 79 NA CS EMILY 1987-09-21 06:00:00 TS 12.4000 -59.7000 40 1004 hurdat_atl main 237 224 O_____________ hurdat_atl AL121987 12.4000 -59.7000 TS 40 1004 0 17 289
1987263N10309 1987 79 NA CS EMILY 1987-09-21 09:00:00 TS 12.7346 -60.4925 main 230 230 P_____________ AL121987 12.7346 -60.4925 TS 42 1004 0 17 294
1987263N10309 1987 79 NA CS EMILY 1987-09-21 12:00:00 TS 13.1000 -61.3000 45 1004 hurdat_atl main 268 268 O_____________ hurdat_atl AL121987 13.1000 -61.3000 TS 45 1004 0 18 292
1987263N10309 1987 79 NA CS EMILY 1987-09-21 15:00:00 TS 13.3925 -62.2003 main 302 302 P_____________ AL121987 13.3925 -62.2003 TS 47 1003 0 19 289
1987263N10309 1987 79 NA CS EMILY 1987-09-21 18:00:00 TS 13.7000 -63.1000 50 1002 hurdat_atl main 335 335 O_____________ hurdat_atl AL121987 13.7000 -63.1000 TS 50 1002 0 18 293
1987263N10309 1987 79 NA CS EMILY 1987-09-21 21:00:00 TS 14.0996 -63.9150 main 390 390 P_____________ AL121987 14.0996 -63.9150 TS 55 997 0 18 297
1987263N10309 1987 79 NA CS EMILY 1987-09-22 00:00:00 TS 14.5000 -64.7000 60 992 hurdat_atl main 408 354 O_____________ hurdat_atl AL121987 14.5000 -64.7000 TS 60 992 0 17 294
1987263N10309 1987 79 NA CS EMILY 1987-09-22 03:00:00 TS 14.7999 -65.5155 main 354 313 P_____________ AL121987 14.7999 -65.5155 TS 70 985 1 17 291
1987263N10309 1987 79 NA CS EMILY 1987-09-22 06:00:00 TS 15.1000 -66.3000 80 978 hurdat_atl main 313 268 O_____________ hurdat_atl AL121987 15.1000 -66.3000 HU 80 978 1 16 295
1987263N10309 1987 79 NA CS EMILY 1987-09-22 09:00:00 TS 15.4846 -67.0152 main 268 227 P_____________ AL121987 15.4846 -67.0152 HU 85 974 2 16 301
1987263N10309 1987 79 NA CS EMILY 1987-09-22 12:00:00 TS 15.9000 -67.7000 90 971 hurdat_atl main 230 213 O_____________ hurdat_atl AL121987 15.9000 -67.7000 HU 90 971 2 16 301
1987263N10309 1987 79 NA CS EMILY 1987-09-22 15:00:00 TS 16.2773 -68.4080 main 213 170 P_____________ AL121987 16.2773 -68.4080 HU 100 964 3 16 301
1987263N10309 1987 79 NA CS EMILY 1987-09-22 18:00:00 TS 16.7000 -69.1000 110 958 hurdat_atl main 170 123 O_____________ hurdat_atl AL121987 16.7000 -69.1000 HU 110 958 3 16 306
1987263N10309 1987 79 NA CS EMILY 1987-09-22 21:00:00 TS 17.2396 -69.7670 main 119 44 P_____________ AL121987 17.2396 -69.7670 HU 107 959 3 17 312
1987263N10309 1987 79 NA CS EMILY 1987-09-23 00:00:00 TS 17.8000 -70.4000 105 960 hurdat_atl main 44 0 O_____________ hurdat_atl AL121987 17.8000 -70.4000 HU 105 960 3 16 312
1987263N10309 1987 79 NA CS EMILY 1987-09-23 03:00:00 TS 18.3000 -71.0000 95 965 hurdat_atl main 0 0 O_____________ hurdat_atl AL121987 18.3000 -71.0000 L HU 95 965 2 16 319
1987263N10309 1987 79 NA NA EMILY 1987-09-23 06:00:00 TS 19.0000 -71.5000 70 984 hurdat_atl main 0 0 O_____________ hurdat_atl AL121987 19.0000 -71.5000 HU 70 984 1 15 325
1987263N10309 1987 79 NA NA EMILY 1987-09-23 09:00:00 TS 19.5477 -71.9412 main 0 0 P_____________ AL121987 19.5477 -71.9412 HU 62 994 0 13 323
1987263N10309 1987 79 NA NA EMILY 1987-09-23 12:00:00 TS 20.0000 -72.3000 55 1004 hurdat_atl main 24 24 O_____________ hurdat_atl AL121987 20.0000 -72.3000 TS 55 1004 0 11 326
1987263N10309 1987 79 NA NA EMILY 1987-09-23 15:00:00 TS 20.4424 -72.5952 main 55 33 P_____________ AL121987 20.4424 -72.5952 TS 47 1003 0 10 333
1987263N10309 1987 79 NA NA EMILY 1987-09-23 18:00:00 TS 20.9000 -72.8000 40 1003 hurdat_atl main 33 10 O_____________ hurdat_atl AL121987 20.9000 -72.8000 TS 40 1003 0 10 342
1987263N10309 1987 79 NA NA EMILY 1987-09-23 21:00:00 TS 21.4275 -72.9376 main 24 24 P_____________ AL121987 21.4275 -72.9376 TS 40 1001 0 11 350
1987263N10309 1987 79 NA NA EMILY 1987-09-24 00:00:00 TS 22.0000 -73.0000 40 1000 hurdat_atl main 89 89 O_____________ hurdat_atl AL121987 22.0000 -73.0000 TS 40 1000 0 12 356
1987263N10309 1987 79 NA NA EMILY 1987-09-24 03:00:00 TS 22.5925 -73.0374 main 156 156 P_____________ AL121987 22.5925 -73.0374 TS 42 1000 0 12 1
1987263N10309 1987 79 NA NA EMILY 1987-09-24 06:00:00 TS 23.2000 -73.0000 45 1001 hurdat_atl main 223 223 O_____________ hurdat_atl AL121987 23.2000 -73.0000 TS 45 1001 0 12 6
1987263N10309 1987 79 NA NA EMILY 1987-09-24 09:00:00 TS 23.7699 -72.9020 main 290 290 P_____________ AL121987 23.7699 -72.9020 TS 45 1001 0 12 13
1987263N10309 1987 79 NA NA EMILY 1987-09-24 12:00:00 TS 24.4000 -72.7000 45 1002 hurdat_atl main 359 359 O_____________ hurdat_atl AL121987 24.4000 -72.7000 TS 45 1002 0 14 17
1987263N10309 1987 79 NA NA EMILY 1987-09-24 15:00:00 TS 25.1395 -72.4385 main 440 440 P_____________ AL121987 25.1395 -72.4385 TS 45 1002 0 17 22
1987263N10309 1987 79 NA NA EMILY 1987-09-24 18:00:00 TS 26.0000 -72.0000 45 1002 hurdat_atl main 546 546 O_____________ hurdat_atl AL121987 26.0000 -72.0000 TS 45 1002 0 21 28
1987263N10309 1987 79 NA NA EMILY 1987-09-24 21:00:00 TS 26.9540 -71.3828 main 668 668 P_____________ AL121987 26.9540 -71.3828 TS 45 1000 0 24 34
1987263N10309 1987 79 NA NA EMILY 1987-09-25 00:00:00 TS 28.0000 -70.5000 45 999 hurdat_atl main 800 800 O_____________ hurdat_atl AL121987 28.0000 -70.5000 TS 45 999 0 28 39
1987263N10309 1987 79 NA NA EMILY 1987-09-25 03:00:00 TS 29.0843 -69.3943 main 914 912 P_____________ AL121987 29.0843 -69.3943 TS 57 992 0 31 45
1987263N10309 1987 79 NA NA EMILY 1987-09-25 06:00:00 TS 30.2000 -68.0000 70 985 hurdat_atl main 936 935 O_____________ hurdat_atl AL121987 30.2000 -68.0000 HU 70 985 1 35 52
1987263N10309 1987 79 NA NA EMILY 1987-09-25 09:00:00 TS 31.2675 -66.1696 main 995 995 P_____________ AL121987 31.2675 -66.1696 HU 72 979 1 37 53
1987263N10309 1987 79 NA NA EMILY 1987-09-25 11:45:00 TS 32.3000 -64.7000 75 974 hurdat_atl main 1066 1066 O_____________ hurdat_atl AL121987 32.3000 -64.7000 L HU 75 974 1 35 50
1987263N10309 1987 79 NA NA EMILY 1987-09-25 12:00:00 TS 32.4000 -64.6000 80 974 hurdat_atl main 1070 1070 O_____________ hurdat_atl AL121987 32.4000 -64.6000 HU 80 974 1 40 52
1987263N10309 1987 79 NA NA EMILY 1987-09-25 15:00:00 TS 33.6509 -62.6586 main 1096 1055 P_____________ AL121987 33.6509 -62.6586 HU 80 974 1 46 56
1987263N10309 1987 79 NA NA EMILY 1987-09-25 18:00:00 TS 35.0000 -60.0000 80 974 hurdat_atl main 1049 1017 O_____________ hurdat_atl AL121987 35.0000 -60.0000 HU 80 974 1 50 56
1987263N10309 1987 79 NA NA EMILY 1987-09-25 21:00:00 TS 36.4474 -57.5923 main 1021 947 P_____________ AL121987 36.4474 -57.5923 HU 77 975 1 50 53
1987263N10309 1987 79 NA NA EMILY 1987-09-26 00:00:00 TS 38.0000 -55.0000 75 976 hurdat_atl main 946 792 O_____________ hurdat_atl AL121987 38.0000 -55.0000 HU 75 976 1 53 54
1987263N10309 1987 79 NA NA EMILY 1987-09-26 03:00:00 TS 39.5509 -52.0970 main 783 689 P_____________ AL121987 39.5509 -52.0970 HU 72 977 1 56 55
1987263N10309 1987 79 NA NA EMILY 1987-09-26 06:00:00 TS 41.2000 -49.0000 70 979 hurdat_atl main 687 675 O_____________ hurdat_atl AL121987 41.2000 -49.0000 HU 70 979 1 58 55
1987263N10309 1987 79 NA NA EMILY 1987-09-26 09:00:00 TS 42.9203 -45.7680 main 711 711 P_____________ AL121987 42.9203 -45.7680 HU 67 981 1 60 53
1987263N10309 1987 79 NA NA EMILY 1987-09-26 12:00:00 TS 44.8000 -42.5000 65 983 hurdat_atl main 830 830 O_____________ hurdat_atl AL121987 44.8000 -42.5000 HU 65 983 1 60 49
1987263N10309 1987 79 NA NA EMILY 1987-09-26 15:00:00 TS 46.8647 -39.2936 main 1001 1001 P_____________ AL121987 46.8647 -39.2936 HU 60 988 0 61 47
1987263N10309 1987 79 NA NA EMILY 1987-09-26 18:00:00 ET 49.0000 -36.0000 55 994 hurdat_atl main 1232 O_____________ hurdat_atl AL121987 49.0000 -36.0000 EX 55 994 -4 61 45

About IBTrACS Database

This database is a web-friendly format of International Best Track Archive for Climate Stewardship (IBTrACS), a global best track data archive curated by NOAA dating back to 1842.

Updated: 2021-11-26